createdAt,value
2022-08-16T00:05:00.241Z,16.80
2022-08-16T00:15:13.121Z,15.40
2022-08-16T00:26:33.626Z,15.10
2022-08-16T00:35:56.577Z,16.13
2022-08-16T00:46:34.628Z,13.73
2022-08-16T00:56:58.419Z,12.90
2022-08-16T01:07:07.620Z,14.07
2022-08-16T01:17:14.572Z,16.42
2022-08-16T01:27:28.514Z,13.60
2022-08-16T01:37:42.933Z,12.82
2022-08-16T01:47:52.282Z,14.43
2022-08-16T01:57:58.913Z,14.18
2022-08-16T02:08:05.043Z,12.50
2022-08-16T02:18:12.457Z,13.27
2022-08-16T02:28:23.987Z,12.05
2022-08-16T02:38:31.703Z,13.77
2022-08-16T02:48:47.426Z,12.27
2022-08-16T02:58:58.711Z,12.82
2022-08-16T03:09:04.737Z,15.77
2022-08-16T03:19:19.220Z,13.20
2022-08-16T03:29:31.268Z,14.02
2022-08-16T03:39:42.607Z,13.52
2022-08-16T03:49:51.851Z,16.42
2022-08-16T03:59:59.462Z,14.20
2022-08-16T04:10:36.036Z,12.75
2022-08-16T04:20:37.283Z,13.40
2022-08-16T04:30:43.081Z,14.60
2022-08-16T04:40:50.004Z,13.55
2022-08-16T04:50:54.229Z,13.85
2022-08-16T05:01:02.726Z,13.85
2022-08-16T05:11:15.122Z,22.48
2022-08-16T05:21:17.459Z,13.30
2022-08-16T05:31:30.434Z,15.93
2022-08-16T05:41:45.569Z,22.52
2022-08-16T05:51:49.764Z,13.63
2022-08-16T06:02:01.121Z,14.75
2022-08-16T06:12:27.320Z,12.88
2022-08-16T06:22:40.308Z,12.63
2022-08-16T06:32:48.587Z,13.18
2022-08-16T06:42:57.504Z,12.07
2022-08-16T06:53:23.049Z,12.10
2022-08-16T07:03:54.488Z,12.85
2022-08-16T07:14:24.394Z,11.77
2022-08-16T07:24:30.020Z,14.00
2022-08-16T07:34:37.790Z,12.55
2022-08-16T07:44:52.743Z,10.18
2022-08-16T07:54:56.349Z,11.38
2022-08-16T08:04:59.063Z,13.50
2022-08-16T08:15:09.634Z,12.07
2022-08-16T08:25:14.232Z,12.57
2022-08-16T08:35:24.331Z,9.65
2022-08-16T08:45:47.384Z,12.35
2022-08-16T08:55:59.214Z,13.45
2022-08-16T09:06:08.496Z,12.30
2022-08-16T09:17:03.821Z,13.70
2022-08-16T09:26:46.366Z,13.05
2022-08-16T09:36:54.570Z,11.15
2022-08-16T09:47:00.715Z,13.80
2022-08-16T09:57:07.395Z,12.48
2022-08-16T10:07:19.152Z,11.07
2022-08-16T10:17:27.411Z,13.02
2022-08-16T10:27:46.222Z,11.88
2022-08-16T10:37:58.241Z,13.18
2022-08-16T10:48:27.411Z,9.63
2022-08-16T10:58:35.150Z,9.55
2022-08-16T11:08:45.727Z,11.73
2022-08-16T11:19:05.681Z,12.63
2022-08-16T11:29:14.674Z,9.55
2022-08-16T11:39:26.432Z,9.90
2022-08-16T11:49:31.422Z,10.32
2022-08-16T11:59:34.062Z,9.93
2022-08-16T12:09:43.092Z,12.98
2022-08-16T12:19:45.998Z,10.55
2022-08-16T12:29:51.618Z,10.93
2022-08-16T12:40:02.490Z,11.65
2022-08-16T12:50:10.374Z,15.18
2022-08-16T13:00:26.256Z,14.05
2022-08-16T13:10:37.632Z,13.40
2022-08-16T13:20:43.425Z,9.43
2022-08-16T13:30:52.016Z,10.18
2022-08-16T13:40:57.275Z,8.10
2022-08-16T13:51:04.119Z,7.78
2022-08-16T14:01:09.857Z,8.05
2022-08-16T14:11:18.463Z,7.47
2022-08-16T14:21:23.659Z,9.15
2022-08-16T14:31:30.704Z,8.63
2022-08-16T14:41:33.194Z,8.57
2022-08-16T14:51:37.588Z,7.25
2022-08-16T15:01:58.878Z,11.35
2022-08-16T15:12:26.232Z,11.77
2022-08-16T15:22:33.005Z,12.15
2022-08-16T15:32:39.904Z,13.63
2022-08-16T15:42:44.180Z,13.32
2022-08-16T15:52:59.519Z,13.13
2022-08-16T16:03:08.419Z,13.13
2022-08-16T16:13:12.020Z,12.65
2022-08-16T16:23:24.404Z,10.98
2022-08-16T16:33:30.650Z,11.70
2022-08-16T16:43:35.917Z,12.50
2022-08-16T16:53:41.487Z,12.63
2022-08-16T17:03:43.668Z,10.63
2022-08-16T17:13:58.671Z,9.80
2022-08-16T17:24:01.742Z,8.80
2022-08-16T17:34:30.124Z,9.18
2022-08-16T17:44:37.388Z,8.40
2022-08-16T17:54:39.462Z,12.18
2022-08-16T18:04:48.469Z,10.60
2022-08-16T18:14:59.892Z,10.68
2022-08-16T18:25:11.977Z,8.55
2022-08-16T18:35:19.683Z,12.10
2022-08-16T18:45:23.439Z,13.02
2022-08-16T18:55:33.527Z,14.55
2022-08-16T19:05:41.499Z,11.25
2022-08-16T19:15:45.739Z,11.82
2022-08-16T19:25:53.125Z,14.13
2022-08-16T19:35:56.357Z,12.73
2022-08-16T19:46:02.050Z,13.57
2022-08-16T19:56:06.547Z,12.18
2022-08-16T20:06:12.200Z,12.02
2022-08-16T20:16:36.910Z,16.05
2022-08-16T20:26:46.027Z,15.02
2022-08-16T20:36:48.204Z,12.50
2022-08-16T20:46:50.800Z,15.15
2022-08-16T20:56:55.184Z,14.27
2022-08-16T21:07:02.028Z,13.00
2022-08-16T21:17:09.603Z,13.43
2022-08-16T21:27:17.610Z,13.63
2022-08-16T21:37:20.886Z,13.88
2022-08-16T21:47:23.219Z,15.88
2022-08-16T21:57:36.339Z,15.98
2022-08-16T22:07:41.095Z,17.00
2022-08-16T22:17:46.141Z,17.00
2022-08-16T22:27:50.987Z,17.70
2022-08-16T22:38:46.105Z,26.08
2022-08-16T22:48:19.083Z,21.33
2022-08-16T22:58:23.830Z,18.52
2022-08-16T23:08:43.189Z,18.60
2022-08-16T23:18:49.546Z,23.90
2022-08-16T23:28:51.730Z,20.75
2022-08-16T23:38:54.574Z,17.38
2022-08-16T23:49:57.379Z,19.42
2022-08-16T23:59:23.373Z,20.02
